createdAt,value
2022-12-23T00:01:16.200Z,100338.09
2022-12-23T00:04:19.114Z,100322.94
2022-12-23T00:07:21.818Z,100315.72
2022-12-23T00:10:25.312Z,100320.81
2022-12-23T00:13:46.358Z,100312.19
2022-12-23T00:16:50.864Z,100300.50
2022-12-23T00:19:53.768Z,100315.31
2022-12-23T00:23:05.764Z,100313.50
2022-12-23T00:26:14.112Z,100307.31
2022-12-23T00:29:16.998Z,100306.84
2022-12-23T00:32:19.665Z,100306.97
2022-12-23T00:35:22.563Z,100302.94
2022-12-23T00:38:44.457Z,100296.75
2022-12-23T00:42:05.933Z,100299.97
2022-12-23T00:45:17.914Z,100298.06
2022-12-23T00:48:39.059Z,100300.56
2022-12-23T00:51:41.794Z,100298.31
2022-12-23T00:54:44.675Z,100285.34
2022-12-23T00:57:47.328Z,100285.03
2022-12-23T01:01:08.886Z,100273.69
2022-12-23T01:04:32.072Z,100280.84
2022-12-23T01:07:35.079Z,100270.31
2022-12-23T01:10:48.261Z,100271.19
2022-12-23T01:13:51.324Z,100269.66
2022-12-23T01:16:54.866Z,100276.22
2022-12-23T01:19:57.826Z,100270.50
2022-12-23T01:23:00.449Z,100249.59
2022-12-23T01:26:06.427Z,100265.47
2022-12-23T01:29:09.241Z,100260.03
2022-12-23T01:32:12.224Z,100265.38
2022-12-23T01:35:15.101Z,100253.22
2022-12-23T01:38:18.043Z,100256.03
2022-12-23T01:41:43.197Z,100255.16
2022-12-23T01:45:03.443Z,100252.62
2022-12-23T01:48:21.475Z,100244.03
2022-12-23T01:51:28.652Z,100246.63
2022-12-23T01:54:31.742Z,100251.47
2022-12-23T01:57:36.992Z,100243.47
2022-12-23T02:01:00.822Z,100245.19
2022-12-23T02:04:11.237Z,100242.94
2022-12-23T02:07:33.001Z,100244.19
2022-12-23T02:11:10.917Z,100248.56
2022-12-23T02:14:35.202Z,100257.16
2022-12-23T02:18:15.368Z,100255.03
2022-12-23T02:21:48.320Z,100249.94
2022-12-23T02:25:07.501Z,100248.59
2022-12-23T02:28:29.048Z,100253.13
2022-12-23T02:31:53.648Z,100246.31
2022-12-23T02:35:02.115Z,100238.03
2022-12-23T02:38:27.765Z,100239.88
2022-12-23T02:41:59.794Z,100238.81
2022-12-23T02:45:11.607Z,100210.66
2022-12-23T02:48:21.113Z,100234.28
2022-12-23T02:51:31.052Z,100227.19
2022-12-23T02:54:40.422Z,100223.66
2022-12-23T02:57:47.838Z,100220.78
2022-12-23T03:00:51.551Z,100213.47
2022-12-23T03:03:55.030Z,100215.22
2022-12-23T03:07:04.317Z,100208.78
2022-12-23T03:10:27.626Z,100205.69
2022-12-23T03:13:55.715Z,100200.44
2022-12-23T03:17:19.892Z,100214.41
2022-12-23T03:20:29.005Z,100196.09
2022-12-23T03:23:42.198Z,100198.81
2022-12-23T03:27:06.338Z,100188.28
2022-12-23T03:30:15.375Z,100203.44
2022-12-23T03:33:27.667Z,100187.16
2022-12-23T03:36:47.771Z,100186.69
2022-12-23T03:39:58.858Z,100182.75
2022-12-23T03:43:06.730Z,100192.66
2022-12-23T03:46:16.213Z,100188.97
2022-12-23T03:49:26.068Z,100191.31
2022-12-23T03:52:46.614Z,100203.31
2022-12-23T03:55:56.021Z,100194.03
2022-12-23T03:59:03.173Z,100182.94
2022-12-23T04:02:13.526Z,100184.19
2022-12-23T04:05:27.947Z,100189.75
2022-12-23T04:08:34.917Z,100188.50
2022-12-23T04:11:38.272Z,100181.62
2022-12-23T04:14:48.067Z,100194.47
2022-12-23T04:17:52.382Z,100198.62
2022-12-23T04:20:59.885Z,100201.66
2022-12-23T04:24:02.859Z,100207.16
2022-12-23T04:27:06.846Z,100191.94
2022-12-23T04:30:13.847Z,100196.06
2022-12-23T04:33:16.579Z,100199.69
2022-12-23T04:36:19.523Z,100198.75
2022-12-23T04:39:22.765Z,100182.94
2022-12-23T04:42:25.684Z,100189.69
2022-12-23T04:45:28.368Z,100192.13
2022-12-23T04:48:31.198Z,100184.72
2022-12-23T04:51:34.154Z,100180.31
2022-12-23T04:54:42.225Z,100184.03
2022-12-23T04:57:48.349Z,100195.63
2022-12-23T05:01:05.427Z,100183.69
2022-12-23T05:04:09.395Z,100189.97
2022-12-23T05:07:12.359Z,100196.78
2022-12-23T05:10:14.978Z,100205.81
2022-12-23T05:13:18.204Z,100205.38
2022-12-23T05:16:21.055Z,100214.44
2022-12-23T05:19:24.524Z,100206.16
2022-12-23T05:22:27.240Z,100204.72
2022-12-23T05:25:30.147Z,100215.22
2022-12-23T05:28:33.470Z,100217.03
2022-12-23T05:31:36.657Z,100228.47
2022-12-23T05:34:39.254Z,100229.91
2022-12-23T05:37:42.076Z,100227.41
2022-12-23T05:40:45.529Z,100230.22
2022-12-23T05:43:48.704Z,100219.34
2022-12-23T05:46:51.326Z,100227.41
2022-12-23T05:49:54.218Z,100223.69
2022-12-23T05:52:57.808Z,100225.59
2022-12-23T05:56:04.590Z,100216.56
2022-12-23T05:59:07.244Z,100211.00
2022-12-23T06:02:10.309Z,100212.91
2022-12-23T06:05:14.072Z,100214.22
2022-12-23T06:08:16.739Z,100218.41
2022-12-23T06:11:19.702Z,100221.25
2022-12-23T06:14:28.317Z,100213.63
2022-12-23T06:17:31.857Z,100216.69
2022-12-23T06:20:34.866Z,100227.13
2022-12-23T06:23:37.911Z,100232.41
2022-12-23T06:26:40.595Z,100243.53
2022-12-23T06:29:43.700Z,100242.75
2022-12-23T06:32:46.338Z,100230.19
2022-12-23T06:35:49.264Z,100260.72
2022-12-23T06:38:51.956Z,100245.97
2022-12-23T06:41:54.952Z,100266.03
2022-12-23T06:44:57.483Z,100272.75
2022-12-23T06:48:00.375Z,100268.41
2022-12-23T06:51:02.959Z,100273.22
2022-12-23T06:54:06.133Z,100274.34
2022-12-23T06:57:08.693Z,100271.75
2022-12-23T07:00:12.351Z,100267.00
2022-12-23T07:03:15.346Z,100269.41
2022-12-23T07:06:18.596Z,100262.88
2022-12-23T07:09:21.458Z,100265.09
2022-12-23T07:12:24.351Z,100257.16
2022-12-23T07:15:27.091Z,100268.53
2022-12-23T07:18:30.074Z,100265.38
2022-12-23T07:21:32.786Z,100261.66
2022-12-23T07:24:36.261Z,100244.84
2022-12-23T07:27:39.165Z,100259.41
2022-12-23T07:30:43.963Z,100267.47
2022-12-23T07:33:46.807Z,100258.09
2022-12-23T07:36:49.751Z,100246.44
2022-12-23T07:39:52.684Z,100246.44
2022-12-23T07:42:58.096Z,100244.06
2022-12-23T07:46:06.786Z,100238.97
2022-12-23T07:49:09.962Z,100245.84
2022-12-23T07:52:12.572Z,100234.53
2022-12-23T07:55:15.853Z,100250.00
2022-12-23T07:58:18.608Z,100230.44
2022-12-23T08:01:22.313Z,100228.78
2022-12-23T08:04:25.346Z,100219.59
2022-12-23T08:07:27.985Z,100229.25
2022-12-23T08:10:32.101Z,100233.75
2022-12-23T08:13:37.331Z,100239.63
2022-12-23T08:16:43.885Z,100238.75
2022-12-23T08:19:51.716Z,100239.09
2022-12-23T08:22:55.363Z,100253.59
2022-12-23T08:26:03.878Z,100254.25
2022-12-23T08:29:06.784Z,100259.12
2022-12-23T08:32:09.702Z,100263.56
2022-12-23T08:35:12.595Z,100259.72
2022-12-23T08:38:15.209Z,100274.87
2022-12-23T08:41:23.125Z,100272.03
2022-12-23T08:44:28.031Z,100280.44
2022-12-23T08:47:31.001Z,100277.25
2022-12-23T08:50:43.581Z,100288.41
2022-12-23T08:53:47.299Z,100271.13
2022-12-23T08:56:49.967Z,100250.34
2022-12-23T08:59:52.944Z,100261.41
2022-12-23T09:02:55.617Z,100257.37
2022-12-23T09:05:59.237Z,100247.53
2022-12-23T09:09:01.925Z,100245.16
2022-12-23T09:12:04.862Z,100247.78
2022-12-23T09:15:07.934Z,100247.91
2022-12-23T09:18:12.517Z,100256.50
2022-12-23T09:21:18.056Z,100252.00
2022-12-23T09:24:21.279Z,100240.94
2022-12-23T09:27:23.892Z,100237.06
2022-12-23T09:30:28.382Z,100245.56
2022-12-23T09:33:31.496Z,100247.47
2022-12-23T09:36:34.456Z,100248.81
2022-12-23T09:39:37.089Z,100241.34
2022-12-23T09:42:55.069Z,100227.53
2022-12-23T09:46:06.503Z,100226.31
2022-12-23T09:49:13.445Z,100218.94
2022-12-23T09:52:24.985Z,100231.84
2022-12-23T09:55:40.457Z,100230.59
2022-12-23T09:59:00.885Z,100223.34
2022-12-23T10:02:23.696Z,100226.87
2022-12-23T10:05:26.652Z,100212.94
2022-12-23T10:08:38.387Z,100222.38
2022-12-23T10:11:44.990Z,100227.66
2022-12-23T10:14:50.828Z,100221.53
2022-12-23T10:17:58.583Z,100206.25
2022-12-23T10:21:10.425Z,100207.81
2022-12-23T10:24:22.486Z,100203.75
2022-12-23T10:27:40.047Z,100196.94
2022-12-23T10:31:17.214Z,100196.69
2022-12-23T10:34:25.601Z,100194.88
2022-12-23T10:37:42.821Z,100189.56
2022-12-23T10:41:16.780Z,100187.22
2022-12-23T10:44:22.307Z,100188.50
2022-12-23T10:47:45.614Z,100187.28
2022-12-23T10:51:25.330Z,100186.22
2022-12-23T10:54:35.539Z,100185.09
2022-12-23T10:57:38.614Z,100181.94
2022-12-23T11:00:46.403Z,100182.63
2022-12-23T11:04:17.741Z,100179.66
2022-12-23T11:07:45.069Z,100183.22
2022-12-23T11:10:50.054Z,100174.56
2022-12-23T11:13:52.673Z,100169.66
2022-12-23T11:16:55.603Z,100165.91
2022-12-23T11:20:13.589Z,100154.66
2022-12-23T11:23:28.862Z,100155.47
2022-12-23T11:26:31.514Z,100149.59
2022-12-23T11:29:35.871Z,100143.53
2022-12-23T11:32:38.499Z,100128.72
2022-12-23T11:35:41.580Z,100126.44
2022-12-23T11:38:52.101Z,100106.13
2022-12-23T11:42:05.198Z,100098.84
2022-12-23T11:45:09.079Z,100106.84
2022-12-23T11:48:38.499Z,100101.22
2022-12-23T11:51:43.092Z,100094.19
2022-12-23T11:54:57.385Z,100095.94
2022-12-23T11:58:02.555Z,100099.28
2022-12-23T12:01:17.242Z,100081.88
2022-12-23T12:04:25.482Z,100087.87
2022-12-23T12:07:30.339Z,100089.69
2022-12-23T12:10:38.300Z,100092.41
2022-12-23T12:13:47.598Z,100087.44
2022-12-23T12:17:00.484Z,100085.03
2022-12-23T12:20:24.630Z,100090.03
2022-12-23T12:23:32.888Z,100094.25
2022-12-23T12:26:37.885Z,100086.00
2022-12-23T12:29:49.396Z,100092.44
2022-12-23T12:33:05.405Z,100082.47
2022-12-23T12:36:32.318Z,100085.41
2022-12-23T12:40:20.986Z,100077.78
2022-12-23T12:43:31.061Z,100079.53
2022-12-23T12:46:46.691Z,100079.53
2022-12-23T12:50:18.074Z,100075.56
2022-12-23T12:53:22.675Z,100073.91
2022-12-23T12:56:47.480Z,100077.59
2022-12-23T13:00:03.592Z,100083.63
2022-12-23T13:03:40.868Z,100081.41
2022-12-23T13:07:03.155Z,100083.34
2022-12-23T13:10:33.961Z,100087.66
2022-12-23T13:13:55.374Z,100085.44
2022-12-23T13:17:20.153Z,100079.34
2022-12-23T13:20:33.817Z,100075.09
2022-12-23T13:24:11.270Z,100072.41
2022-12-23T13:27:49.266Z,100079.56
2022-12-23T13:31:33.483Z,100075.34
2022-12-23T13:34:58.737Z,100075.34
2022-12-23T13:38:13.791Z,100070.59
2022-12-23T13:41:36.910Z,100082.62
2022-12-23T13:44:40.638Z,100078.78
2022-12-23T13:48:10.913Z,100056.00
2022-12-23T13:51:21.553Z,100073.75
2022-12-23T13:54:44.801Z,100083.34
2022-12-23T13:58:16.746Z,100080.91
2022-12-23T14:01:42.058Z,100071.00
2022-12-23T14:04:54.096Z,100084.50
2022-12-23T14:08:04.379Z,100082.19
2022-12-23T14:11:09.190Z,100083.69
2022-12-23T14:14:22.918Z,100084.78
2022-12-23T14:17:39.361Z,100072.88
2022-12-23T14:20:54.640Z,100086.06
2022-12-23T14:24:03.832Z,100087.72
2022-12-23T14:27:31.687Z,100079.56
2022-12-23T14:30:42.647Z,100081.91
2022-12-23T14:33:48.414Z,100101.09
2022-12-23T14:37:30.075Z,100108.47
2022-12-23T14:40:38.797Z,100102.59
2022-12-23T14:43:44.621Z,100105.00
2022-12-23T14:46:47.263Z,100109.44
2022-12-23T14:49:50.375Z,100113.50
2022-12-23T14:53:00.656Z,100114.50
2022-12-23T14:56:09.513Z,100105.37
2022-12-23T14:59:37.627Z,100112.59
2022-12-23T15:02:41.444Z,100111.56
2022-12-23T15:05:45.171Z,100120.03
2022-12-23T15:08:50.997Z,100114.56
2022-12-23T15:11:55.991Z,100108.59
2022-12-23T15:15:03.388Z,100104.81
2022-12-23T15:18:11.923Z,100109.19
2022-12-23T15:21:14.998Z,100100.69
2022-12-23T15:24:22.219Z,100101.03
2022-12-23T15:27:27.824Z,100102.53
2022-12-23T15:30:37.624Z,100107.09
2022-12-23T15:37:03.879Z,100116.31
2022-12-23T15:40:23.207Z,100121.69
2022-12-23T15:43:26.193Z,100123.81
2022-12-23T15:46:31.874Z,100124.50
2022-12-23T15:49:34.478Z,100122.28
2022-12-23T15:52:41.359Z,100107.78
2022-12-23T15:55:45.293Z,100099.09
2022-12-23T15:58:48.962Z,100116.50
2022-12-23T16:01:52.385Z,100116.19
2022-12-23T16:05:00.425Z,100119.16
2022-12-23T16:08:12.217Z,100119.41
2022-12-23T16:11:17.413Z,100117.28
2022-12-23T16:14:39.528Z,100110.53
2022-12-23T16:17:42.508Z,100108.91
2022-12-23T16:21:02.319Z,100104.28
2022-12-23T16:24:09.538Z,100104.06
2022-12-23T16:27:25.301Z,100105.66
2022-12-23T16:30:39.384Z,100106.91
2022-12-23T16:33:55.422Z,100100.59
2022-12-23T16:36:58.282Z,100098.69
2022-12-23T16:40:06.121Z,100106.62
2022-12-23T16:43:09.381Z,100097.13
2022-12-23T16:46:17.165Z,100098.91
2022-12-23T16:49:24.436Z,100089.41
2022-12-23T16:52:30.693Z,100083.53
2022-12-23T16:55:33.528Z,100096.00
2022-12-23T16:58:36.104Z,100093.72
2022-12-23T17:01:42.966Z,100090.00
2022-12-23T17:04:45.730Z,100102.91
2022-12-23T17:07:49.033Z,100105.94
2022-12-23T17:10:53.975Z,100098.28
2022-12-23T17:14:03.871Z,100107.53
2022-12-23T17:17:15.790Z,100099.41
2022-12-23T17:20:21.391Z,100102.34
2022-12-23T17:23:31.053Z,100099.41
2022-12-23T17:26:34.010Z,100101.44
2022-12-23T17:29:36.621Z,100085.06
2022-12-23T17:32:39.938Z,100084.00
2022-12-23T17:35:42.556Z,100092.84
2022-12-23T17:38:45.508Z,100089.91
2022-12-23T17:41:48.827Z,100100.56
2022-12-23T17:44:51.783Z,100085.72
2022-12-23T17:47:54.744Z,100084.94
2022-12-23T17:50:58.479Z,100069.66
2022-12-23T17:54:01.336Z,100079.41
2022-12-23T17:57:15.850Z,100094.19
2022-12-23T18:00:28.126Z,100104.69
2022-12-23T18:03:36.787Z,100105.94
2022-12-23T18:06:39.647Z,100097.81
2022-12-23T18:09:42.892Z,100094.31
2022-12-23T18:12:48.298Z,100088.31
2022-12-23T18:15:51.255Z,100096.00
2022-12-23T18:18:53.960Z,100080.50
2022-12-23T18:21:56.984Z,100089.47
2022-12-23T18:24:59.809Z,100078.38
2022-12-23T18:28:04.201Z,100081.09
2022-12-23T18:31:17.355Z,100082.78
2022-12-23T18:34:22.308Z,100083.69
2022-12-23T18:37:25.380Z,100094.87
2022-12-23T18:40:32.933Z,100103.03
2022-12-23T18:43:36.022Z,100108.78
2022-12-23T18:46:39.031Z,100110.50
2022-12-23T18:49:41.901Z,100103.94
2022-12-23T18:52:46.593Z,100100.53
2022-12-23T18:55:49.762Z,100099.41
2022-12-23T18:58:52.681Z,100100.97
2022-12-23T19:01:56.569Z,100095.56
2022-12-23T19:04:59.917Z,100107.81
2022-12-23T19:08:02.760Z,100092.06
2022-12-23T19:11:20.746Z,100081.09
2022-12-23T19:14:23.686Z,100078.38
2022-12-23T19:17:26.623Z,100089.44
2022-12-23T19:20:31.397Z,100093.19
2022-12-23T19:23:34.497Z,100087.87
2022-12-23T19:26:37.135Z,100086.53
2022-12-23T19:29:40.051Z,100073.16
2022-12-23T19:32:43.253Z,100089.22
2022-12-23T19:35:46.146Z,100081.09
2022-12-23T19:38:49.173Z,100082.66
2022-12-23T19:41:52.713Z,100075.78
2022-12-23T19:44:55.768Z,100082.66
2022-12-23T19:47:58.712Z,100080.38
2022-12-23T19:51:04.453Z,100088.88
2022-12-23T19:54:07.365Z,100087.41
2022-12-23T19:57:09.975Z,100082.91
2022-12-23T20:00:15.983Z,100093.84
2022-12-23T20:03:19.337Z,100105.50
2022-12-23T20:06:27.999Z,100118.53
2022-12-23T20:09:31.069Z,100107.19
2022-12-23T20:12:33.919Z,100098.97
2022-12-23T20:15:36.844Z,100107.66
2022-12-23T20:18:39.638Z,100113.66
2022-12-23T20:21:42.848Z,100108.47
2022-12-23T20:24:45.517Z,100122.94
2022-12-23T20:27:56.584Z,100131.00
2022-12-23T20:31:09.510Z,100135.16
2022-12-23T20:34:17.212Z,100130.53
2022-12-23T20:37:19.869Z,100122.84
2022-12-23T20:40:25.676Z,100127.72
2022-12-23T20:43:28.730Z,100127.22
2022-12-23T20:46:31.737Z,100128.37
2022-12-23T20:49:34.520Z,100127.47
2022-12-23T20:52:37.472Z,100126.00
2022-12-23T20:55:40.074Z,100128.69
2022-12-23T20:58:55.729Z,100128.13
2022-12-23T21:01:59.492Z,100128.81
2022-12-23T21:05:02.475Z,100123.84
2022-12-23T21:08:05.221Z,100128.78
2022-12-23T21:11:11.330Z,100122.34
2022-12-23T21:14:15.793Z,100124.25
2022-12-23T21:17:18.705Z,100123.56
2022-12-23T21:20:21.670Z,100121.28
2022-12-23T21:23:24.719Z,100102.28
2022-12-23T21:26:29.632Z,100116.72
2022-12-23T21:29:32.998Z,100117.88
2022-12-23T21:32:35.664Z,100122.28
2022-12-23T21:35:38.563Z,100128.41
2022-12-23T21:38:43.096Z,100120.34
2022-12-23T21:41:46.284Z,100102.00
2022-12-23T21:44:48.896Z,100108.44
2022-12-23T21:47:51.786Z,100109.13
2022-12-23T21:51:11.707Z,100105.09
2022-12-23T21:54:14.758Z,100096.25
2022-12-23T21:57:17.390Z,100087.28
2022-12-23T22:00:24.356Z,100089.66
2022-12-23T22:03:27.921Z,100067.78
2022-12-23T22:06:33.203Z,100078.06
2022-12-23T22:09:36.149Z,100074.91
2022-12-23T22:12:39.637Z,100075.59
2022-12-23T22:15:43.042Z,100067.78
2022-12-23T22:18:46.684Z,100065.25
2022-12-23T22:21:49.661Z,100068.84
2022-12-23T22:24:52.353Z,100071.56
2022-12-23T22:27:55.294Z,100061.09
2022-12-23T22:31:05.755Z,100069.38
2022-12-23T22:34:13.575Z,100066.91
2022-12-23T22:37:16.152Z,100064.88
2022-12-23T22:40:19.407Z,100060.94
2022-12-23T22:43:22.138Z,100051.28
2022-12-23T22:46:25.905Z,100050.22
2022-12-23T22:49:28.931Z,100044.47
2022-12-23T22:52:31.799Z,100040.81
2022-12-23T22:55:34.697Z,100035.94
2022-12-23T22:58:37.641Z,100048.59
2022-12-23T23:01:40.342Z,100043.31
2022-12-23T23:04:43.254Z,100050.59
2022-12-23T23:07:45.882Z,100047.78
2022-12-23T23:10:50.177Z,100049.78
2022-12-23T23:13:54.044Z,100049.91
2022-12-23T23:16:57.073Z,100045.25
2022-12-23T23:20:00.445Z,100042.19
2022-12-23T23:23:04.003Z,100042.56
2022-12-23T23:26:09.216Z,100046.53
2022-12-23T23:29:12.165Z,100032.56
2022-12-23T23:32:15.074Z,100033.09
2022-12-23T23:35:18.059Z,100028.03
2022-12-23T23:38:20.748Z,100029.78
2022-12-23T23:41:24.329Z,100021.81
2022-12-23T23:44:27.081Z,100013.81
2022-12-23T23:47:34.555Z,100010.75
2022-12-23T23:50:37.356Z,100006.78
2022-12-23T23:53:40.833Z,99994.41
2022-12-23T23:56:43.639Z,99984.97
2022-12-23T23:59:46.641Z,99992.94
